Time;durP1;ratioP1;P1;durP2;ratioP2;P2;SDS_P1;SDS_P2;PMS_P1;PMS_P2;Temp;Humidity;BMP_temperature;BMP_pressure;BME280_temperature;BME280_humidity;BME280_pressure;Samples;Min_cycle;Max_cycle;Signal;HPM_P1;HPM_P2
2022/03/06 00:00:34;;;;;;;40.50;19.90;;;;;;;2.90;95.71;96614.66;5093579;28;20443;-40
2022/03/06 00:03:04;;;;;;;38.47;20.83;;;;;;;2.94;95.47;96621.94;5094131;28;20450;-40
2022/03/06 00:05:35;;;;;;;35.17;18.83;;;;;;;3.00;93.58;96620.38;5093796;28;20485;-39
2022/03/06 00:08:02;;;;;;;40.63;19.13;;;;;;;3.01;93.56;96614.13;5093974;28;20841;-39
2022/03/06 00:10:30;;;;;;;39.73;19.90;;;;;;;3.04;93.93;96614.53;5093977;28;20451;-40
2022/03/06 00:12:57;;;;;;;40.63;19.13;;;;;;;3.09;93.95;96613.97;5093423;28;20949;-40
2022/03/06 00:15:27;;;;;;;29.73;16.47;;;;;;;3.15;93.35;96615.03;5093453;28;20439;-40
2022/03/06 00:17:55;;;;;;;38.40;20.47;;;;;;;3.11;93.27;96613.78;5093462;28;20832;-39
2022/03/06 00:20:22;;;;;;;37.17;20.30;;;;;;;3.15;92.77;96615.81;5093466;28;20454;-39
2022/03/06 00:22:50;;;;;;;40.37;21.63;;;;;;;3.12;92.54;96610.13;5094151;28;20447;-39
2022/03/06 00:25:17;;;;;;;32.80;18.60;;;;;;;2.98;92.64;96599.56;5093859;28;20830;-39
2022/03/06 00:27:45;;;;;;;30.43;17.83;;;;;;;3.08;92.01;96612.34;5093016;28;20972;-39
2022/03/06 00:30:12;;;;;;;33.70;18.37;;;;;;;3.05;92.48;96612.72;5093460;28;20449;-40
2022/03/06 00:32:41;;;;;;;27.83;15.40;;;;;;;3.01;92.29;96609.69;5093495;28;20926;-40
2022/03/06 00:35:10;;;;;;;33.87;17.60;;;;;;;2.99;92.56;96601.22;5097559;28;20457;-40
2022/03/06 00:37:37;;;;;;;36.17;17.43;;;;;;;2.90;93.18;96599.72;5097239;28;20487;-40
2022/03/06 00:40:06;;;;;;;37.70;19.50;;;;;;;2.81;93.73;96604.31;5097848;28;20843;-39
2022/03/06 00:42:33;;;;;;;29.47;16.57;;;;;;;2.75;94.02;96610.31;5097563;28;20445;-40
2022/03/06 00:45:01;;;;;;;35.87;19.23;;;;;;;2.73;93.51;96596.63;5097791;28;20439;-39
2022/03/06 00:47:28;;;;;;;26.37;17.17;;;;;;;2.77;92.85;96597.81;5096980;28;20453;-40
2022/03/06 00:49:57;;;;;;;35.80;17.60;;;;;;;2.78;92.47;96602.09;5097615;28;20439;-40
2022/03/06 00:52:24;;;;;;;31.60;15.50;;;;;;;2.80;92.79;96591.41;5097198;28;20482;-41
2022/03/06 00:54:52;;;;;;;31.73;18.00;;;;;;;2.82;92.31;96605.94;5097356;28;20442;-40
2022/03/06 00:57:19;;;;;;;27.90;15.37;;;;;;;2.81;92.17;96609.56;5096879;28;20488;-41
2022/03/06 00:59:46;;;;;;;28.57;15.60;;;;;;;2.76;92.46;96606.69;5097338;28;20446;-40
2022/03/06 01:02:14;;;;;;;30.43;15.80;;;;;;;2.77;92.40;96597.03;5096945;28;20457;-41
2022/03/06 01:04:41;;;;;;;28.90;16.70;;;;;;;2.78;92.13;96599.47;5097106;28;20445;-40
2022/03/06 01:07:10;;;;;;;27.13;15.17;;;;;;;2.78;91.62;96594.22;5097014;28;20447;-39
2022/03/06 01:09:37;;;;;;;23.33;13.27;;;;;;;2.84;91.26;96598.69;5097044;28;20439;-40
2022/03/06 01:12:05;;;;;;;30.40;15.90;;;;;;;2.73;91.67;96595.78;5096992;28;21002;-40
2022/03/06 01:14:32;;;;;;;27.13;13.67;;;;;;;2.70;91.73;96601.41;5097236;28;20454;-40
2022/03/06 01:17:00;;;;;;;30.50;16.63;;;;;;;2.70;92.28;96606.66;5076423;28;20439;-39
2022/03/06 01:19:27;;;;;;;27.47;14.90;;;;;;;2.62;91.73;96603.19;5094564;28;20446;-39
2022/03/06 01:21:54;;;;;;;27.70;14.70;;;;;;;2.70;91.91;96602.22;5097094;28;20811;-39
2022/03/06 01:24:23;;;;;;;31.33;16.63;;;;;;;2.74;92.14;96607.91;5097064;28;20518;-39
2022/03/06 01:26:50;;;;;;;28.80;15.40;;;;;;;2.71;92.28;96598.63;5096600;28;20447;-39
2022/03/06 01:29:18;;;;;;;30.73;16.77;;;;;;;2.70;92.12;96598.78;5096574;28;20451;-39
2022/03/06 01:31:46;;;;;;;36.60;14.97;;;;;;;2.73;92.49;96596.63;5096653;28;20439;-39
2022/03/06 01:34:13;;;;;;;27.70;17.37;;;;;;;2.70;93.00;96596.97;5096798;28;20439;-40
2022/03/06 01:36:40;;;;;;;38.57;18.60;;;;;;;2.68;93.88;96588.50;5096353;28;20464;-40
2022/03/06 01:39:07;;;;;;;32.53;16.37;;;;;;;2.60;94.61;96591.25;5096273;28;20486;-40
2022/03/06 01:41:36;;;;;;;36.73;17.00;;;;;;;2.56;94.89;96590.00;5096308;28;20995;-39
2022/03/06 01:44:04;;;;;;;31.10;18.20;;;;;;;2.60;94.48;96597.31;5095730;28;20435;-40
2022/03/06 01:46:31;;;;;;;34.23;18.10;;;;;;;2.61;94.39;96593.69;5096292;28;20790;-40
2022/03/06 01:48:58;;;;;;;23.50;14.23;;;;;;;2.63;93.97;96596.13;5097314;28;20450;-41
2022/03/06 01:51:25;;;;;;;28.90;17.47;;;;;;;2.63;94.17;96606.63;5096301;28;20467;-41
2022/03/06 01:53:53;;;;;;;37.97;17.53;;;;;;;2.64;94.42;96602.97;5096211;28;20439;-41
2022/03/06 01:56:20;;;;;;;31.30;15.87;;;;;;;2.60;94.77;96596.50;5096368;28;20518;-42
2022/03/06 01:58:49;;;;;;;38.60;17.57;;;;;;;2.60;95.22;96604.34;5096261;28;20981;-41
2022/03/06 02:01:17;;;;;;;30.57;16.97;;;;;;;2.57;95.83;96602.94;5095650;28;20446;-40
2022/03/06 02:03:44;;;;;;;35.43;18.57;;;;;;;2.56;95.74;96595.25;5095940;28;20446;-40
2022/03/06 02:06:11;;;;;;;32.97;18.20;;;;;;;2.56;96.36;96600.50;5095955;28;20451;-40
2022/03/06 02:08:39;;;;;;;40.70;20.10;;;;;;;2.57;96.12;96599.50;5095749;28;20779;-40
2022/03/06 02:11:08;;;;;;;35.30;17.80;;;;;;;2.53;96.63;96600.88;5095778;28;20455;-41
2022/03/06 02:13:35;;;;;;;26.87;14.73;;;;;;;2.53;96.42;96591.22;5096635;28;20447;-41
2022/03/06 02:16:05;;;;;;;30.93;15.90;;;;;;;2.51;95.62;96608.13;5095703;28;20443;-40
2022/03/06 02:18:32;;;;;;;35.43;18.33;;;;;;;2.49;95.56;96610.13;5095648;28;20536;-41
2022/03/06 02:20:59;;;;;;;38.10;15.73;;;;;;;2.45;95.50;96605.28;5095736;28;20439;-40
2022/03/06 02:23:28;;;;;;;34.03;16.03;;;;;;;2.38;95.84;96599.16;5095682;28;20438;-39
2022/03/06 02:25:55;;;;;;;34.20;16.30;;;;;;;2.44;95.63;96608.88;5095576;28;20776;-39
2022/03/06 02:28:22;;;;;;;29.63;14.83;;;;;;;2.46;94.81;96596.41;5095985;28;20447;-39
2022/03/06 02:30:50;;;;;;;29.07;17.50;;;;;;;2.47;94.86;96602.44;5095522;28;20458;-38
2022/03/06 02:33:17;;;;;;;29.97;17.00;;;;;;;2.40;95.60;96607.63;5095459;28;20779;-39
2022/03/06 02:35:44;;;;;;;26.87;16.13;;;;;;;2.39;95.96;96608.66;5095168;28;20616;-39
2022/03/06 02:38:12;;;;;;;36.23;16.97;;;;;;;2.34;95.75;96597.91;5095274;28;20486;-40
2022/03/06 02:40:42;;;;;;;31.43;15.97;;;;;;;2.30;96.54;96604.53;5095180;28;20526;-40
2022/03/06 02:43:10;;;;;;;30.97;17.47;;;;;;;2.30;96.94;96628.09;5095247;28;20435;-40
2022/03/06 02:45:40;;;;;;;32.57;17.60;;;;;;;2.28;96.95;96614.41;5094966;28;20449;-40
2022/03/06 02:48:08;;;;;;;36.93;17.47;;;;;;;2.24;97.52;96603.47;5095104;28;20447;-39
2022/03/06 02:50:38;;;;;;;24.17;15.77;;;;;;;2.29;96.57;96609.97;5095177;28;20970;-39
2022/03/06 02:53:09;;;;;;;28.03;16.33;;;;;;;2.25;97.38;96604.28;5095561;28;20427;-39
2022/03/06 02:55:36;;;;;;;34.67;16.07;;;;;;;2.22;97.39;96615.94;5095509;28;20434;-39
2022/03/06 02:58:05;;;;;;;36.60;17.10;;;;;;;2.23;96.94;96617.56;5094630;28;20491;-40
2022/03/06 03:00:33;;;;;;;33.70;16.20;;;;;;;2.25;97.32;96604.28;5094410;28;20465;-39
2022/03/06 03:03:00;;;;;;;29.43;17.37;;;;;;;2.23;97.61;96608.91;5094875;28;20443;-39
2022/03/06 03:05:27;;;;;;;28.83;16.00;;;;;;;2.20;97.22;96620.56;5094748;28;20447;-39
2022/03/06 03:07:54;;;;;;;33.13;18.30;;;;;;;2.13;97.65;96617.09;5094717;28;20816;-39
2022/03/06 03:10:23;;;;;;;30.80;15.97;;;;;;;2.15;97.71;96614.25;5094761;28;20496;-39
2022/03/06 03:12:51;;;;;;;32.40;16.77;;;;;;;2.17;98.04;96609.66;5094893;28;20484;-39
2022/03/06 03:15:20;;;;;;;27.30;16.47;;;;;;;2.16;98.38;96615.91;5094951;28;20447;-40
2022/03/06 03:17:47;;;;;;;29.00;14.77;;;;;;;2.13;98.43;96624.09;5094221;28;20489;-39
2022/03/06 03:20:16;;;;;;;39.70;15.80;;;;;;;2.10;98.40;96621.88;5094675;28;20442;-39
2022/03/06 03:22:43;;;;;;;43.87;18.40;;;;;;;2.15;98.33;96622.13;5094470;28;20445;-39
2022/03/06 03:25:12;;;;;;;31.60;15.30;;;;;;;2.13;98.20;96616.25;5094088;28;20447;-39
2022/03/06 03:27:40;;;;;;;36.30;19.60;;;;;;;2.07;98.39;96617.84;5094332;28;20439;-39
2022/03/06 03:30:09;;;;;;;28.40;16.80;;;;;;;1.97;98.66;96615.50;5094359;28;20522;-40
2022/03/06 03:32:38;;;;;;;46.10;15.73;;;;;;;2.03;99.08;96617.38;5094317;28;20447;-39
2022/03/06 03:35:06;;;;;;;33.00;16.00;;;;;;;1.99;99.02;96618.75;5094613;28;20447;-39
2022/03/06 03:37:33;;;;;;;42.40;18.63;;;;;;;1.95;99.19;96620.13;5093987;28;20439;-39
2022/03/06 03:40:02;;;;;;;28.87;15.17;;;;;;;1.96;99.78;96608.66;5094497;28;20469;-39
2022/03/06 03:42:29;;;;;;;29.57;15.83;;;;;;;2.01;99.41;96616.75;5094120;28;20445;-40
2022/03/06 03:44:56;;;;;;;34.67;18.53;;;;;;;1.93;99.76;96616.06;5093698;28;20449;-39
2022/03/06 03:47:23;;;;;;;30.43;16.10;;;;;;;1.90;99.98;96622.50;5094333;28;20804;-39
2022/03/06 03:49:52;;;;;;;36.70;18.13;;;;;;;1.90;99.77;96616.44;5094222;28;20534;-39
2022/03/06 03:52:19;;;;;;;21.10;12.73;;;;;;;1.88;99.85;96618.44;5093858;28;20479;-40
2022/03/06 03:54:46;;;;;;;30.07;15.97;;;;;;;1.90;99.84;96612.03;5094147;28;20443;-39
2022/03/06 03:57:15;;;;;;;33.60;17.73;;;;;;;1.89;100.00;96620.84;5094228;28;20443;-40
2022/03/06 03:59:43;;;;;;;39.37;16.80;;;;;;;1.92;99.95;96623.13;5093290;28;20989;-39
2022/03/06 04:02:10;;;;;;;29.93;17.83;;;;;;;1.91;100.00;96624.09;5074209;28;20454;-39
2022/03/06 04:04:37;;;;;;;26.03;13.83;;;;;;;1.89;99.98;96620.84;5073007;28;20838;-40
2022/03/06 04:07:06;;;;;;;35.67;15.50;;;;;;;1.88;99.95;96624.47;5072575;28;20447;-39
2022/03/06 04:09:33;;;;;;;29.90;16.30;;;;;;;1.86;100.00;96616.00;5072068;28;20946;-40
2022/03/06 04:12:00;;;;;;;31.00;17.20;;;;;;;1.89;99.87;96610.38;5074548;28;20520;-40
2022/03/06 04:14:28;;;;;;;34.30;17.70;;;;;;;1.93;99.64;96611.63;5074617;28;20448;-41
2022/03/06 04:16:55;;;;;;;25.67;14.00;;;;;;;1.95;99.61;96603.59;5072702;28;20440;-40
2022/03/06 04:19:22;;;;;;;29.37;16.77;;;;;;;1.94;99.40;96610.66;5072517;28;20514;-41
2022/03/06 04:21:49;;;;;;;29.43;16.23;;;;;;;1.92;99.40;96615.25;5072517;28;20467;-40
2022/03/06 04:24:18;;;;;;;37.43;19.07;;;;;;;1.89;99.33;96599.91;5075696;28;20444;-40
2022/03/06 04:26:45;;;;;;;28.60;15.83;;;;;;;1.93;98.32;96608.22;5073818;28;21080;-40
2022/03/06 04:29:12;;;;;;;32.33;15.27;;;;;;;1.89;98.77;96605.16;5075267;28;20499;-39
2022/03/06 04:31:39;;;;;;;40.70;19.73;;;;;;;1.89;99.01;96609.56;5072561;28;20451;-40
2022/03/06 04:34:07;;;;;;;29.63;17.10;;;;;;;1.84;98.12;96621.41;5073627;28;20845;-39
2022/03/06 04:36:34;;;;;;;36.70;18.13;;;;;;;1.86;98.02;96625.66;5073317;28;20931;-39
2022/03/06 04:39:01;;;;;;;29.03;13.20;;;;;;;1.73;98.30;96619.28;5073478;28;20483;-42
2022/03/06 04:41:30;;;;;;;33.87;16.40;;;;;;;1.73;98.77;96615.88;5093887;28;20446;-39
2022/03/06 04:43:57;;;;;;;31.17;17.00;;;;;;;1.69;98.38;96625.88;5093088;28;20443;-40
2022/03/06 04:46:24;;;;;;;37.50;20.13;;;;;;;1.63;98.74;96621.38;5073107;28;20440;-39
2022/03/06 04:48:52;;;;;;;38.03;18.03;;;;;;;1.66;99.36;96621.03;5073060;28;20451;-40
2022/03/06 04:51:19;;;;;;;42.37;16.43;;;;;;;1.69;99.06;96632.94;5074755;28;20478;-39
2022/03/06 04:53:46;;;;;;;35.40;17.23;;;;;;;1.64;98.68;96644.75;5093199;28;20843;-39
2022/03/06 04:56:14;;;;;;;35.20;16.80;;;;;;;1.64;99.28;96639.53;5093539;28;20464;-39
2022/03/06 04:58:42;;;;;;;34.93;17.97;;;;;;;1.60;98.52;96633.03;5093060;28;20482;-39
2022/03/06 05:01:09;;;;;;;33.87;18.47;;;;;;;1.61;99.17;96639.91;5093208;28;20469;-39
2022/03/06 05:03:37;;;;;;;33.27;18.20;;;;;;;1.64;99.09;96634.28;5093066;28;20453;-40
2022/03/06 05:06:04;;;;;;;36.10;16.00;;;;;;;1.56;98.69;96616.06;5073282;28;20854;-41
2022/03/06 05:08:31;;;;;;;39.37;19.20;;;;;;;1.59;99.48;96639.28;5071847;28;20505;-40
2022/03/06 05:10:59;;;;;;;41.87;18.37;;;;;;;1.59;99.13;96636.66;5073156;28;20803;-41
2022/03/06 05:13:26;;;;;;;52.73;19.40;;;;;;;1.63;98.75;96627.44;5073383;28;20444;-40
2022/03/06 05:15:55;;;;;;;36.27;15.07;;;;;;;1.66;98.96;96630.66;5085482;28;20445;-40
2022/03/06 05:18:22;;;;;;;43.77;17.67;;;;;;;1.61;98.93;96644.31;5093252;28;20447;-39
2022/03/06 05:20:50;;;;;;;37.33;18.07;;;;;;;1.59;99.06;96646.28;5096551;28;20443;-40
2022/03/06 05:23:17;;;;;;;41.13;20.53;;;;;;;1.60;98.89;96653.97;5097094;28;20791;-40
2022/03/06 05:25:45;;;;;;;41.07;20.17;;;;;;;1.59;99.36;96647.13;5096244;28;20508;-41
2022/03/06 05:28:12;;;;;;;38.87;17.33;;;;;;;1.59;98.86;96656.75;5077203;28;20441;-40
2022/03/06 05:30:39;;;;;;;33.17;17.70;;;;;;;1.40;98.99;96616.28;5076443;28;20455;-41
2022/03/06 05:33:08;;;;;;;47.70;20.33;;;;;;;1.57;99.91;96654.34;5075028;28;20562;-40
2022/03/06 05:35:35;;;;;;;43.50;20.43;;;;;;;1.54;100.00;96654.69;5075227;28;20805;-40
2022/03/06 05:38:02;;;;;;;44.33;18.73;;;;;;;1.50;100.00;96653.44;5076086;28;20440;-41
2022/03/06 05:40:29;;;;;;;40.33;19.57;;;;;;;1.42;100.00;96650.94;5075911;28;20487;-41
2022/03/06 05:42:57;;;;;;;46.87;23.80;;;;;;;1.48;100.00;96652.81;5077571;28;20486;-40
2022/03/06 05:45:24;;;;;;;47.53;20.47;;;;;;;1.38;100.00;96660.13;5093021;28;20449;-40
2022/03/06 05:47:51;;;;;;;50.97;19.50;;;;;;;1.37;100.00;96650.66;5096001;28;20445;-39
2022/03/06 05:50:20;;;;;;;39.87;21.40;;;;;;;1.38;100.00;96660.94;5095366;28;20450;-40
2022/03/06 05:52:48;;;;;;;39.17;18.90;;;;;;;1.44;100.00;96659.38;5083123;28;20483;-40
2022/03/06 05:55:16;;;;;;;48.70;20.70;;;;;;;1.33;100.00;96659.84;5075429;28;20472;-41
2022/03/06 05:57:44;;;;;;;49.23;21.70;;;;;;;1.34;100.00;96651.03;5075788;28;20452;-40
2022/03/06 06:00:13;;;;;;;50.57;19.60;;;;;;;1.34;100.00;96661.50;5075835;28;21033;-40
2022/03/06 06:02:43;;;;;;;42.67;21.10;;;;;;;1.32;100.00;96655.63;5092647;28;20825;-40
2022/03/06 06:05:11;;;;;;;57.03;21.93;;;;;;;1.36;100.00;96662.94;5085195;28;20448;-41
2022/03/06 06:07:39;;;;;;;46.53;21.90;;;;;;;1.32;100.00;96660.84;5078581;28;20450;-40
2022/03/06 06:10:08;;;;;;;52.17;20.50;;;;;;;1.32;100.00;96655.63;5095876;28;20443;-40
2022/03/06 06:12:35;;;;;;;55.83;23.53;;;;;;;1.31;100.00;96659.22;5095826;28;20442;-39
2022/03/06 06:15:02;;;;;;;50.67;22.23;;;;;;;1.34;100.00;96664.09;5095734;28;20458;-39
2022/03/06 06:17:30;;;;;;;51.23;22.77;;;;;;;1.30;100.00;96652.38;5095408;28;20439;-39
2022/03/06 06:19:58;;;;;;;50.63;22.00;;;;;;;1.35;100.00;96668.34;5095117;28;20487;-39
2022/03/06 06:22:25;;;;;;;45.33;21.37;;;;;;;1.16;100.00;96660.06;5095195;28;20447;-40
2022/03/06 06:24:54;;;;;;;60.97;22.43;;;;;;;1.40;100.00;96676.47;5095334;28;20447;-39
2022/03/06 06:27:22;;;;;;;74.80;29.67;;;;;;;1.34;100.00;96671.97;5095835;28;20915;-40
2022/03/06 06:29:49;;;;;;;62.00;28.67;;;;;;;1.36;100.00;96683.06;5095599;28;21032;-39
2022/03/06 06:32:16;;;;;;;56.07;25.90;;;;;;;1.35;100.00;96681.41;5094344;28;20447;-39
2022/03/06 06:34:44;;;;;;;68.67;28.37;;;;;;;1.30;100.00;96684.56;5095530;28;20439;-40
2022/03/06 06:37:12;;;;;;;56.33;21.27;;;;;;;1.35;100.00;96679.59;5095059;28;20930;-39
2022/03/06 06:39:39;;;;;;;68.00;26.10;;;;;;;1.33;100.00;96678.16;5094729;28;20487;-40
2022/03/06 06:42:09;;;;;;;51.70;21.30;;;;;;;1.30;100.00;96681.16;5078556;28;20451;-41
2022/03/06 06:44:36;;;;;;;39.23;20.90;;;;;;;1.36;100.00;96693.53;5091668;28;20518;-41
2022/03/06 06:47:05;;;;;;;46.97;21.33;;;;;;;1.37;100.00;96685.47;5093421;28;20445;-41
2022/03/06 06:49:32;;;;;;;50.00;23.33;;;;;;;1.28;100.00;96685.75;5074567;28;20814;-41
2022/03/06 06:51:59;;;;;;;93.90;35.20;;;;;;;1.36;100.00;96685.66;5073967;28;20475;-40
2022/03/06 06:54:26;;;;;;;57.90;22.87;;;;;;;1.34;100.00;96690.28;5074503;28;20440;-41
2022/03/06 06:56:53;;;;;;;42.33;22.97;;;;;;;1.31;100.00;96688.00;5074171;28;20923;-41
2022/03/06 06:59:22;;;;;;;50.67;20.27;;;;;;;1.32;100.00;96690.44;5078516;28;20884;-40
2022/03/06 07:01:49;;;;;;;38.37;19.80;;;;;;;1.33;100.00;96678.16;5083929;28;20462;-41
2022/03/06 07:04:17;;;;;;;41.80;20.20;;;;;;;1.37;100.00;96684.66;5094183;28;20445;-40
2022/03/06 07:06:44;;;;;;;47.10;20.17;;;;;;;1.34;100.00;96695.50;5092461;28;20447;-40
2022/03/06 07:09:11;;;;;;;47.43;23.47;;;;;;;1.38;100.00;96686.31;5093983;28;20447;-40
2022/03/06 07:11:38;;;;;;;57.70;20.80;;;;;;;1.38;100.00;96692.34;5091066;28;20496;-40
2022/03/06 07:14:06;;;;;;;42.13;20.27;;;;;;;1.31;100.00;96685.38;5077950;28;22057;-41
2022/03/06 07:16:34;;;;;;;42.67;21.00;;;;;;;1.29;100.00;96689.97;5076667;28;20936;-41
2022/03/06 07:19:02;;;;;;;46.00;21.97;;;;;;;1.17;100.00;96679.16;5094372;28;20445;-41
2022/03/06 07:21:29;;;;;;;40.73;18.67;;;;;;;1.15;100.00;96695.03;5093886;28;20480;-40
2022/03/06 07:23:56;;;;;;;43.73;22.00;;;;;;;1.16;100.00;96694.06;5094339;28;20446;-40
2022/03/06 07:26:23;;;;;;;47.13;20.70;;;;;;;1.16;100.00;96683.59;5094369;28;20439;-41
2022/03/06 07:28:50;;;;;;;49.80;23.17;;;;;;;1.12;100.00;96684.94;5094409;28;20831;-40
2022/03/06 07:31:18;;;;;;;46.17;22.83;;;;;;;1.13;100.00;96676.09;5081115;28;20565;-39
2022/03/06 07:33:46;;;;;;;44.23;20.03;;;;;;;1.13;100.00;96680.50;5073998;28;20440;-40
2022/03/06 07:36:13;;;;;;;43.23;19.47;;;;;;;1.20;100.00;96676.19;5074227;28;20516;-41
2022/03/06 07:38:41;;;;;;;39.13;20.27;;;;;;;1.20;100.00;96676.97;5073967;28;20440;-40
2022/03/06 07:41:08;;;;;;;48.73;22.50;;;;;;;1.20;100.00;96679.59;5074163;28;20917;-41
2022/03/06 07:43:36;;;;;;;47.40;19.50;;;;;;;1.19;100.00;96683.22;5073056;28;20440;-40
2022/03/06 07:46:03;;;;;;;46.70;21.97;;;;;;;1.22;100.00;96693.31;5073754;28;20565;-40
2022/03/06 07:48:30;;;;;;;47.07;19.60;;;;;;;1.07;100.00;96662.91;5076470;28;20914;-39
2022/03/06 07:50:59;;;;;;;52.27;21.67;;;;;;;1.21;100.00;96686.47;5094018;28;20880;-40
2022/03/06 07:53:26;;;;;;;39.70;17.17;;;;;;;1.20;100.00;96690.06;5093849;28;20874;-39
2022/03/06 07:55:53;;;;;;;44.20;20.47;;;;;;;1.13;100.00;96685.75;5094261;28;20439;-40
2022/03/06 07:58:21;;;;;;;42.20;20.70;;;;;;;1.09;100.00;96687.91;5093706;28;20442;-40
2022/03/06 08:00:48;;;;;;;47.00;19.80;;;;;;;1.11;100.00;96691.16;5093681;28;20486;-40
2022/03/06 08:03:15;;;;;;;45.00;19.33;;;;;;;1.07;100.00;96689.88;5093312;28;20947;-40
2022/03/06 08:05:42;;;;;;;43.20;17.27;;;;;;;1.11;100.00;96693.75;5094079;28;20837;-39
2022/03/06 08:08:11;;;;;;;36.70;17.50;;;;;;;1.16;100.00;96688.81;5094028;28;20439;-39
2022/03/06 08:10:38;;;;;;;53.13;21.10;;;;;;;1.06;100.00;96683.03;5093108;28;20830;-39
2022/03/06 08:13:05;;;;;;;33.70;17.00;;;;;;;1.06;100.00;96677.81;5093277;28;20443;-39
2022/03/06 08:15:32;;;;;;;45.70;17.90;;;;;;;0.96;100.00;96690.31;5093664;28;20442;-39
2022/03/06 08:18:00;;;;;;;38.00;20.00;;;;;;;0.96;100.00;96677.25;5093674;28;20841;-40
2022/03/06 08:20:27;;;;;;;43.73;20.17;;;;;;;0.93;100.00;96677.63;5093260;28;20489;-39
2022/03/06 08:22:54;;;;;;;54.83;21.40;;;;;;;0.88;100.00;96691.19;5094384;28;20500;-39
2022/03/06 08:25:23;;;;;;;46.20;18.03;;;;;;;0.89;100.00;96686.78;5093170;28;20438;-40
2022/03/06 08:27:50;;;;;;;43.90;17.83;;;;;;;0.88;100.00;96679.94;5092955;28;20446;-39
2022/03/06 08:30:17;;;;;;;40.30;16.93;;;;;;;0.91;100.00;96684.81;5092911;28;20457;-39
2022/03/06 08:32:44;;;;;;;41.07;20.17;;;;;;;0.92;100.00;96681.19;5093409;28;20453;-41
2022/03/06 08:35:11;;;;;;;34.53;16.73;;;;;;;0.95;100.00;96683.47;5092949;28;20439;-40
2022/03/06 08:37:38;;;;;;;36.33;16.50;;;;;;;0.91;100.00;96677.78;5093147;28;20841;-39
2022/03/06 08:40:08;;;;;;;32.90;16.70;;;;;;;0.96;100.00;96685.09;5093491;28;20450;-40
2022/03/06 08:42:37;;;;;;;36.83;14.77;;;;;;;0.93;100.00;96682.84;5093279;28;20446;-41
2022/03/06 08:45:05;;;;;;;37.73;19.10;;;;;;;0.94;100.00;96685.25;5092804;28;20496;-39
2022/03/06 08:47:32;;;;;;;40.33;20.63;;;;;;;0.92;100.00;96683.81;5092865;28;20484;-39
2022/03/06 08:50:00;;;;;;;54.83;22.77;;;;;;;0.97;100.00;96686.72;5093245;28;20491;-42
2022/03/06 08:52:27;;;;;;;34.27;15.97;;;;;;;0.98;100.00;96680.50;5092593;28;20868;-41
2022/03/06 08:54:54;;;;;;;30.23;15.07;;;;;;;1.04;100.00;96685.00;5094826;28;20934;-40
2022/03/06 08:57:23;;;;;;;17.27;10.47;;;;;;;1.02;100.00;96677.34;5097568;28;20446;-40
2022/03/06 08:59:51;;;;;;;39.33;17.33;;;;;;;1.01;100.00;96669.66;5096971;28;21020;-40
2022/03/06 09:02:18;;;;;;;27.07;14.33;;;;;;;1.01;100.00;96670.50;5097249;28;20796;-39
2022/03/06 09:04:46;;;;;;;28.67;15.90;;;;;;;1.05;100.00;96676.16;5096798;28;20443;-40
2022/03/06 09:07:13;;;;;;;26.87;13.70;;;;;;;1.11;100.00;96675.44;5096995;28;20888;-39
2022/03/06 09:09:40;;;;;;;30.57;16.47;;;;;;;1.02;100.00;96676.53;5095824;28;20878;-40
2022/03/06 09:12:08;;;;;;;37.07;19.67;;;;;;;1.10;100.00;96679.06;5095365;28;20455;-39
2022/03/06 09:14:35;;;;;;;26.70;14.50;;;;;;;1.16;100.00;96688.81;5097045;28;20443;-39
2022/03/06 09:17:04;;;;;;;22.60;12.63;;;;;;;1.15;100.00;96681.94;5096830;28;20435;-40
2022/03/06 09:19:32;;;;;;;27.13;14.30;;;;;;;1.20;100.00;96695.28;5096189;28;20446;-39
2022/03/06 09:21:59;;;;;;;55.23;23.43;;;;;;;1.21;100.00;96683.84;5097082;28;20442;-40
2022/03/06 09:24:26;;;;;;;35.77;17.77;;;;;;;1.21;100.00;96691.69;5089153;28;20443;-41
2022/03/06 09:26:53;;;;;;;37.20;17.17;;;;;;;1.21;100.00;96681.25;5076763;28;20444;-41
2022/03/06 09:29:20;;;;;;;44.83;23.90;;;;;;;1.22;100.00;96692.50;5076419;28;20446;-41
2022/03/06 09:31:47;;;;;;;24.97;14.00;;;;;;;1.26;99.75;96701.63;5089966;28;20486;-39
2022/03/06 09:34:16;;;;;;;32.43;16.93;;;;;;;1.29;99.56;96693.44;5096596;28;20442;-39
2022/03/06 09:36:43;;;;;;;39.10;21.10;;;;;;;1.28;100.00;96690.97;5096513;28;20922;-41
2022/03/06 09:39:10;;;;;;;32.23;19.47;;;;;;;1.29;100.00;96693.44;5094828;28;20449;-41
2022/03/06 09:41:39;;;;;;;38.97;20.20;;;;;;;1.30;100.00;96689.00;5095628;28;20455;-40
2022/03/06 09:44:09;;;;;;;36.67;16.97;;;;;;;1.36;99.96;96699.56;5095502;28;20930;-42
2022/03/06 09:46:36;;;;;;;31.83;15.57;;;;;;;1.34;98.46;96695.50;5096172;28;20435;-41
2022/03/06 09:49:05;;;;;;;34.33;15.20;;;;;;;1.37;99.76;96689.91;5095615;28;20443;-41
2022/03/06 09:51:35;;;;;;;35.90;15.77;;;;;;;1.37;99.68;96692.50;5094289;28;20506;-40
2022/03/06 09:54:02;;;;;;;25.30;13.83;;;;;;;1.43;99.98;96702.25;5088427;28;20444;-40
2022/03/06 09:56:30;;;;;;;25.30;13.73;;;;;;;1.46;98.65;96699.25;5076070;28;20452;-40
2022/03/06 09:58:57;;;;;;;29.63;14.33;;;;;;;1.47;98.43;96690.44;5084396;28;20439;-41
2022/03/06 10:01:24;;;;;;;24.20;12.97;;;;;;;1.42;97.02;96700.66;5094738;28;20518;-41
2022/03/06 10:03:51;;;;;;;26.40;13.63;;;;;;;1.36;97.82;96696.13;5094898;28;20431;-40
2022/03/06 10:06:18;;;;;;;26.67;15.00;;;;;;;1.33;98.26;96688.63;5094807;28;20435;-40
2022/03/06 10:08:47;;;;;;;32.40;14.43;;;;;;;1.37;98.81;96695.13;5094035;28;20450;-41
2022/03/06 10:11:15;;;;;;;28.37;14.50;;;;;;;1.36;97.84;96693.53;5095809;28;20497;-40
2022/03/06 10:13:44;;;;;;;25.17;13.37;;;;;;;1.37;98.67;96695.94;5095432;28;20439;-40
2022/03/06 10:16:13;;;;;;;26.87;12.80;;;;;;;1.32;98.20;96695.66;5095048;28;20847;-40
2022/03/06 10:18:43;;;;;;;29.83;14.43;;;;;;;1.29;98.34;96689.97;5095956;28;20454;-40
2022/03/06 10:21:16;;;;;;;26.73;12.27;;;;;;;1.23;99.68;96684.47;5095293;28;20424;-41
2022/03/06 10:23:44;;;;;;;30.57;13.93;;;;;;;1.30;98.15;96674.09;5085310;28;20948;-41
2022/03/06 10:26:15;;;;;;;33.80;16.93;;;;;;;1.32;99.27;96681.78;5075027;28;20439;-40
2022/03/06 10:28:47;;;;;;;30.27;14.83;;;;;;;1.39;98.97;96683.47;5075733;28;20494;-40
2022/03/06 10:31:15;;;;;;;30.60;13.70;;;;;;;1.42;97.89;96684.94;5084484;28;20493;-41
2022/03/06 10:33:55;;;;;;;30.67;16.60;;;;;;;1.44;97.61;96672.47;5094796;28;20450;-39
2022/03/06 10:36:31;;;;;;;21.10;13.03;;;;;;;1.45;97.46;96655.78;5095671;28;20427;-41
2022/03/06 10:38:58;;;;;;;22.17;11.77;;;;;;;1.47;96.63;96661.66;5095218;28;20431;-40
2022/03/06 10:41:35;;;;;;;23.80;13.80;;;;;;;1.49;96.75;96667.53;5094838;28;20526;-41
2022/03/06 10:44:03;;;;;;;33.43;13.87;;;;;;;1.54;97.35;96669.59;5094174;28;20998;-41
2022/03/06 10:46:33;;;;;;;24.53;12.00;;;;;;;1.60;96.67;96650.53;5089809;28;20443;-42
2022/03/06 10:49:07;;;;;;;25.80;14.10;;;;;;;1.58;96.73;96649.91;5095774;28;20439;-41
2022/03/06 10:51:38;;;;;;;23.17;13.53;;;;;;;1.64;95.89;96659.66;5094681;28;20490;-40
2022/03/06 10:54:05;;;;;;;28.60;14.07;;;;;;;1.63;96.86;96653.63;5094259;28;20942;-40
2022/03/06 10:56:34;;;;;;;25.57;14.70;;;;;;;1.72;96.31;96658.72;5094994;28;20439;-40
2022/03/06 10:59:04;;;;;;;33.50;15.60;;;;;;;1.73;97.33;96642.03;5093654;28;20473;-41
2022/03/06 11:01:32;;;;;;;20.90;9.77;;;;;;;1.69;96.29;96659.09;5094728;28;20439;-41
2022/03/06 11:04:02;;;;;;;24.27;14.10;;;;;;;1.61;97.32;96650.38;5094753;28;20492;-41
2022/03/06 11:06:37;;;;;;;17.10;10.77;;;;;;;1.60;97.03;96643.50;5094866;28;20435;-41
2022/03/06 11:09:04;;;;;;;22.63;11.93;;;;;;;1.51;97.83;96639.38;5094602;28;20440;-40
2022/03/06 11:11:34;;;;;;;32.73;16.90;;;;;;;1.54;97.93;96633.75;5094954;28;20494;-41
2022/03/06 11:14:02;;;;;;;44.47;21.17;;;;;;;1.57;98.74;96632.56;5094953;28;20423;-41
2022/03/06 11:16:31;;;;;;;23.30;11.30;;;;;;;1.49;98.00;96628.28;5094019;28;20804;-40
2022/03/06 11:18:58;;;;;;;22.27;10.63;;;;;;;1.50;98.90;96632.50;5090959;28;20467;-40
2022/03/06 11:21:27;;;;;;;33.83;20.07;;;;;;;1.52;100.00;96630.50;5088875;28;20444;-40
2022/03/06 11:23:58;;;;;;;29.03;16.40;;;;;;;1.58;100.00;96621.94;5079900;28;20478;-42